sensor_id;sensor_type;location;lat;lon;timestamp;P1;durP1;ratioP1;P2;durP2;ratioP2
13252;SDS011;6693;54.370;10.132;2023-03-14T00:00:04;13.90;;;2.20;;
13252;SDS011;6693;54.370;10.132;2023-03-14T00:01:10;11.95;;;1.83;;
13252;SDS011;6693;54.370;10.132;2023-03-14T00:02:15;12.98;;;1.98;;
13252;SDS011;6693;54.370;10.132;2023-03-14T00:03:15;17.35;;;2.30;;
13252;SDS011;6693;54.370;10.132;2023-03-14T00:04:21;11.15;;;1.45;;
13252;SDS011;6693;54.370;10.132;2023-03-14T00:05:22;13.05;;;1.92;;
13252;SDS011;6693;54.370;10.132;2023-03-14T00:06:25;11.50;;;1.48;;
13252;SDS011;6693;54.370;10.132;2023-03-14T00:07:26;10.23;;;1.60;;
13252;SDS011;6693;54.370;10.132;2023-03-14T00:08:34;7.68;;;1.42;;
13252;SDS011;6693;54.370;10.132;2023-03-14T00:09:34;15.40;;;2.00;;
13252;SDS011;6693;54.370;10.132;2023-03-14T00:10:38;13.27;;;1.58;;
13252;SDS011;6693;54.370;10.132;2023-03-14T00:11:38;9.57;;;1.80;;
13252;SDS011;6693;54.370;10.132;2023-03-14T00:12:42;9.02;;;1.75;;
13252;SDS011;6693;54.370;10.132;2023-03-14T00:13:42;13.07;;;2.22;;
13252;SDS011;6693;54.370;10.132;2023-03-14T00:14:46;15.63;;;2.35;;
13252;SDS011;6693;54.370;10.132;2023-03-14T00:15:46;10.43;;;1.63;;
13252;SDS011;6693;54.370;10.132;2023-03-14T00:16:49;13.90;;;1.85;;
13252;SDS011;6693;54.370;10.132;2023-03-14T00:17:50;10.05;;;1.73;;
13252;SDS011;6693;54.370;10.132;2023-03-14T00:18:53;11.80;;;2.30;;
13252;SDS011;6693;54.370;10.132;2023-03-14T00:19:56;11.05;;;2.00;;
13252;SDS011;6693;54.370;10.132;2023-03-14T00:21:05;13.70;;;2.15;;
13252;SDS011;6693;54.370;10.132;2023-03-14T00:22:06;11.80;;;1.42;;
13252;SDS011;6693;54.370;10.132;2023-03-14T00:23:10;12.05;;;1.92;;
13252;SDS011;6693;54.370;10.132;2023-03-14T00:24:10;11.45;;;1.73;;
13252;SDS011;6693;54.370;10.132;2023-03-14T00:25:13;15.60;;;1.95;;
13252;SDS011;6693;54.370;10.132;2023-03-14T00:26:15;12.05;;;1.90;;
13252;SDS011;6693;54.370;10.132;2023-03-14T00:27:19;11.45;;;1.80;;
13252;SDS011;6693;54.370;10.132;2023-03-14T00:28:19;15.35;;;2.35;;
13252;SDS011;6693;54.370;10.132;2023-03-14T00:29:22;13.13;;;2.60;;
13252;SDS011;6693;54.370;10.132;2023-03-14T00:30:23;16.92;;;3.30;;
13252;SDS011;6693;54.370;10.132;2023-03-14T00:31:26;11.52;;;1.70;;
13252;SDS011;6693;54.370;10.132;2023-03-14T00:32:27;15.30;;;1.88;;
13252;SDS011;6693;54.370;10.132;2023-03-14T00:33:30;11.20;;;1.55;;
13252;SDS011;6693;54.370;10.132;2023-03-14T00:34:31;15.77;;;2.17;;
13252;SDS011;6693;54.370;10.132;2023-03-14T00:35:37;14.18;;;1.88;;
13252;SDS011;6693;54.370;10.132;2023-03-14T00:36:38;15.32;;;1.75;;
13252;SDS011;6693;54.370;10.132;2023-03-14T00:37:41;14.48;;;1.90;;
13252;SDS011;6693;54.370;10.132;2023-03-14T00:38:43;13.05;;;1.67;;
13252;SDS011;6693;54.370;10.132;2023-03-14T00:39:47;11.40;;;1.77;;
13252;SDS011;6693;54.370;10.132;2023-03-14T00:40:47;14.65;;;2.13;;
13252;SDS011;6693;54.370;10.132;2023-03-14T00:41:51;12.82;;;1.92;;
13252;SDS011;6693;54.370;10.132;2023-03-14T00:42:51;13.13;;;2.17;;
13252;SDS011;6693;54.370;10.132;2023-03-14T00:43:54;16.40;;;2.30;;
13252;SDS011;6693;54.370;10.132;2023-03-14T00:44:55;15.00;;;2.30;;
13252;SDS011;6693;54.370;10.132;2023-03-14T00:45:58;11.88;;;1.77;;
13252;SDS011;6693;54.370;10.132;2023-03-14T00:46:59;16.58;;;2.42;;
13252;SDS011;6693;54.370;10.132;2023-03-14T00:48:03;12.23;;;2.20;;
13252;SDS011;6693;54.370;10.132;2023-03-14T00:49:03;12.70;;;2.55;;
13252;SDS011;6693;54.370;10.132;2023-03-14T00:50:07;10.90;;;1.83;;
13252;SDS011;6693;54.370;10.132;2023-03-14T00:51:11;11.30;;;2.22;;
13252;SDS011;6693;54.370;10.132;2023-03-14T00:52:15;10.48;;;1.65;;
13252;SDS011;6693;54.370;10.132;2023-03-14T00:53:16;10.13;;;1.27;;
13252;SDS011;6693;54.370;10.132;2023-03-14T00:54:19;12.88;;;2.10;;
13252;SDS011;6693;54.370;10.132;2023-03-14T00:55:20;15.15;;;2.20;;
13252;SDS011;6693;54.370;10.132;2023-03-14T00:56:23;12.18;;;1.92;;
13252;SDS011;6693;54.370;10.132;2023-03-14T00:57:24;12.25;;;1.85;;
13252;SDS011;6693;54.370;10.132;2023-03-14T00:58:27;13.07;;;2.05;;
13252;SDS011;6693;54.370;10.132;2023-03-14T00:59:27;15.23;;;2.58;;
13252;SDS011;6693;54.370;10.132;2023-03-14T01:00:31;9.10;;;1.80;;
13252;SDS011;6693;54.370;10.132;2023-03-14T01:01:31;15.20;;;1.92;;
13252;SDS011;6693;54.370;10.132;2023-03-14T01:02:36;14.88;;;1.67;;
13252;SDS011;6693;54.370;10.132;2023-03-14T01:03:37;16.05;;;2.10;;
13252;SDS011;6693;54.370;10.132;2023-03-14T01:04:40;12.68;;;1.52;;
13252;SDS011;6693;54.370;10.132;2023-03-14T01:05:43;14.70;;;1.70;;
13252;SDS011;6693;54.370;10.132;2023-03-14T01:06:49;14.98;;;2.60;;
13252;SDS011;6693;54.370;10.132;2023-03-14T01:07:49;12.57;;;1.92;;
13252;SDS011;6693;54.370;10.132;2023-03-14T01:08:53;11.57;;;1.92;;
13252;SDS011;6693;54.370;10.132;2023-03-14T01:09:54;13.90;;;2.00;;
13252;SDS011;6693;54.370;10.132;2023-03-14T01:10:57;16.92;;;1.75;;
13252;SDS011;6693;54.370;10.132;2023-03-14T01:11:57;13.27;;;2.03;;
13252;SDS011;6693;54.370;10.132;2023-03-14T01:13:00;12.20;;;2.00;;
13252;SDS011;6693;54.370;10.132;2023-03-14T01:14:01;12.88;;;1.80;;
13252;SDS011;6693;54.370;10.132;2023-03-14T01:15:06;14.95;;;2.45;;
13252;SDS011;6693;54.370;10.132;2023-03-14T01:16:08;11.98;;;1.92;;
13252;SDS011;6693;54.370;10.132;2023-03-14T01:17:12;10.57;;;1.67;;
13252;SDS011;6693;54.370;10.132;2023-03-14T01:18:15;13.77;;;1.48;;
13252;SDS011;6693;54.370;10.132;2023-03-14T01:19:16;9.60;;;1.58;;
13252;SDS011;6693;54.370;10.132;2023-03-14T01:20:19;12.48;;;1.63;;
13252;SDS011;6693;54.370;10.132;2023-03-14T01:21:21;11.73;;;1.80;;
13252;SDS011;6693;54.370;10.132;2023-03-14T01:22:27;18.08;;;1.95;;
13252;SDS011;6693;54.370;10.132;2023-03-14T01:23:28;14.85;;;2.40;;
13252;SDS011;6693;54.370;10.132;2023-03-14T01:24:31;11.20;;;1.55;;
13252;SDS011;6693;54.370;10.132;2023-03-14T01:25:32;11.73;;;2.22;;
13252;SDS011;6693;54.370;10.132;2023-03-14T01:26:35;17.65;;;1.95;;
13252;SDS011;6693;54.370;10.132;2023-03-14T01:27:36;13.65;;;1.92;;
13252;SDS011;6693;54.370;10.132;2023-03-14T01:28:39;13.80;;;2.05;;
13252;SDS011;6693;54.370;10.132;2023-03-14T01:29:40;12.63;;;1.48;;
13252;SDS011;6693;54.370;10.132;2023-03-14T01:30:43;15.10;;;1.88;;
13252;SDS011;6693;54.370;10.132;2023-03-14T01:31:44;12.98;;;2.40;;
13252;SDS011;6693;54.370;10.132;2023-03-14T01:32:47;10.50;;;1.50;;
13252;SDS011;6693;54.370;10.132;2023-03-14T01:33:48;12.25;;;1.77;;
13252;SDS011;6693;54.370;10.132;2023-03-14T01:34:51;17.13;;;1.98;;
13252;SDS011;6693;54.370;10.132;2023-03-14T01:35:52;13.60;;;1.85;;
13252;SDS011;6693;54.370;10.132;2023-03-14T01:36:55;15.02;;;2.10;;
13252;SDS011;6693;54.370;10.132;2023-03-14T01:37:58;12.88;;;1.83;;
13252;SDS011;6693;54.370;10.132;2023-03-14T01:39:02;13.93;;;1.95;;
13252;SDS011;6693;54.370;10.132;2023-03-14T01:40:03;16.20;;;2.50;;
13252;SDS011;6693;54.370;10.132;2023-03-14T01:41:09;13.63;;;1.92;;
13252;SDS011;6693;54.370;10.132;2023-03-14T01:42:13;11.50;;;1.98;;
13252;SDS011;6693;54.370;10.132;2023-03-14T01:43:17;12.57;;;1.73;;
13252;SDS011;6693;54.370;10.132;2023-03-14T01:44:19;15.40;;;1.70;;
13252;SDS011;6693;54.370;10.132;2023-03-14T01:46:53;10.18;;;1.50;;
13252;SDS011;6693;54.370;10.132;2023-03-14T01:47:56;12.88;;;1.83;;
13252;SDS011;6693;54.370;10.132;2023-03-14T01:48:59;11.07;;;2.00;;
13252;SDS011;6693;54.370;10.132;2023-03-14T01:50:06;14.00;;;1.98;;
13252;SDS011;6693;54.370;10.132;2023-03-14T01:51:12;13.00;;;2.08;;
13252;SDS011;6693;54.370;10.132;2023-03-14T01:52:16;12.90;;;2.17;;
13252;SDS011;6693;54.370;10.132;2023-03-14T01:53:24;14.05;;;1.85;;
13252;SDS011;6693;54.370;10.132;2023-03-14T01:54:26;12.40;;;1.77;;
13252;SDS011;6693;54.370;10.132;2023-03-14T01:55:31;14.40;;;1.80;;
13252;SDS011;6693;54.370;10.132;2023-03-14T01:56:31;12.35;;;1.33;;
13252;SDS011;6693;54.370;10.132;2023-03-14T01:57:35;11.75;;;1.67;;
13252;SDS011;6693;54.370;10.132;2023-03-14T01:58:37;12.27;;;2.13;;
13252;SDS011;6693;54.370;10.132;2023-03-14T01:59:43;14.32;;;2.15;;
13252;SDS011;6693;54.370;10.132;2023-03-14T02:00:49;14.90;;;1.58;;
13252;SDS011;6693;54.370;10.132;2023-03-14T02:01:49;13.95;;;1.85;;
13252;SDS011;6693;54.370;10.132;2023-03-14T02:02:55;16.08;;;1.70;;
13252;SDS011;6693;54.370;10.132;2023-03-14T02:03:59;11.15;;;2.00;;
13252;SDS011;6693;54.370;10.132;2023-03-14T02:05:05;15.23;;;1.63;;
13252;SDS011;6693;54.370;10.132;2023-03-14T02:06:06;11.05;;;1.60;;
13252;SDS011;6693;54.370;10.132;2023-03-14T02:07:12;11.35;;;2.15;;
13252;SDS011;6693;54.370;10.132;2023-03-14T02:08:19;11.32;;;1.95;;
13252;SDS011;6693;54.370;10.132;2023-03-14T02:09:24;9.18;;;1.50;;
13252;SDS011;6693;54.370;10.132;2023-03-14T02:10:28;8.88;;;1.63;;
13252;SDS011;6693;54.370;10.132;2023-03-14T02:11:30;10.40;;;1.50;;
13252;SDS011;6693;54.370;10.132;2023-03-14T02:12:34;10.80;;;1.92;;
13252;SDS011;6693;54.370;10.132;2023-03-14T02:13:35;14.30;;;1.77;;
13252;SDS011;6693;54.370;10.132;2023-03-14T02:14:38;14.95;;;2.00;;
13252;SDS011;6693;54.370;10.132;2023-03-14T02:15:39;12.18;;;1.98;;
13252;SDS011;6693;54.370;10.132;2023-03-14T02:16:42;10.98;;;1.58;;
13252;SDS011;6693;54.370;10.132;2023-03-14T02:17:43;10.82;;;1.55;;
13252;SDS011;6693;54.370;10.132;2023-03-14T02:18:47;10.63;;;1.83;;
13252;SDS011;6693;54.370;10.132;2023-03-14T02:19:50;10.63;;;2.05;;
13252;SDS011;6693;54.370;10.132;2023-03-14T02:21:00;12.60;;;2.25;;
13252;SDS011;6693;54.370;10.132;2023-03-14T02:22:05;14.65;;;1.98;;
13252;SDS011;6693;54.370;10.132;2023-03-14T02:23:10;12.32;;;1.70;;
13252;SDS011;6693;54.370;10.132;2023-03-14T02:24:14;12.00;;;1.50;;
13252;SDS011;6693;54.370;10.132;2023-03-14T02:25:24;14.77;;;2.17;;
13252;SDS011;6693;54.370;10.132;2023-03-14T02:26:27;11.20;;;1.65;;
13252;SDS011;6693;54.370;10.132;2023-03-14T02:27:35;12.65;;;1.60;;
13252;SDS011;6693;54.370;10.132;2023-03-14T02:28:36;12.80;;;2.10;;
13252;SDS011;6693;54.370;10.132;2023-03-14T02:29:41;10.82;;;2.03;;
13252;SDS011;6693;54.370;10.132;2023-03-14T02:30:46;11.65;;;1.33;;
13252;SDS011;6693;54.370;10.132;2023-03-14T02:31:49;17.02;;;2.13;;
13252;SDS011;6693;54.370;10.132;2023-03-14T02:32:51;11.82;;;1.45;;
13252;SDS011;6693;54.370;10.132;2023-03-14T02:33:56;13.35;;;1.80;;
13252;SDS011;6693;54.370;10.132;2023-03-14T02:34:57;9.32;;;1.42;;
13252;SDS011;6693;54.370;10.132;2023-03-14T02:36:02;14.98;;;1.75;;
13252;SDS011;6693;54.370;10.132;2023-03-14T02:37:06;14.15;;;2.08;;
13252;SDS011;6693;54.370;10.132;2023-03-14T02:38:10;11.05;;;1.73;;
13252;SDS011;6693;54.370;10.132;2023-03-14T02:39:15;15.38;;;1.70;;
13252;SDS011;6693;54.370;10.132;2023-03-14T02:40:22;14.30;;;1.85;;
13252;SDS011;6693;54.370;10.132;2023-03-14T02:41:23;9.18;;;1.55;;
13252;SDS011;6693;54.370;10.132;2023-03-14T02:42:26;14.00;;;2.03;;
13252;SDS011;6693;54.370;10.132;2023-03-14T02:43:30;17.33;;;1.83;;
13252;SDS011;6693;54.370;10.132;2023-03-14T02:44:33;16.92;;;1.88;;
13252;SDS011;6693;54.370;10.132;2023-03-14T02:45:37;11.77;;;1.83;;
13252;SDS011;6693;54.370;10.132;2023-03-14T02:46:42;14.50;;;2.20;;
13252;SDS011;6693;54.370;10.132;2023-03-14T02:47:46;12.32;;;1.83;;
13252;SDS011;6693;54.370;10.132;2023-03-14T02:48:50;13.50;;;1.63;;
13252;SDS011;6693;54.370;10.132;2023-03-14T02:49:56;12.00;;;1.85;;
13252;SDS011;6693;54.370;10.132;2023-03-14T02:51:00;10.75;;;1.50;;
13252;SDS011;6693;54.370;10.132;2023-03-14T02:52:04;9.98;;;1.42;;
13252;SDS011;6693;54.370;10.132;2023-03-14T02:53:05;14.05;;;2.20;;
13252;SDS011;6693;54.370;10.132;2023-03-14T02:54:08;13.88;;;1.80;;
13252;SDS011;6693;54.370;10.132;2023-03-14T02:55:11;15.43;;;2.20;;
13252;SDS011;6693;54.370;10.132;2023-03-14T02:56:12;9.98;;;2.20;;
13252;SDS011;6693;54.370;10.132;2023-03-14T02:57:15;13.57;;;2.03;;
13252;SDS011;6693;54.370;10.132;2023-03-14T02:58:16;10.52;;;1.90;;
13252;SDS011;6693;54.370;10.132;2023-03-14T02:59:23;17.10;;;2.53;;
13252;SDS011;6693;54.370;10.132;2023-03-14T03:00:23;13.18;;;1.73;;
13252;SDS011;6693;54.370;10.132;2023-03-14T03:01:27;13.18;;;1.92;;
13252;SDS011;6693;54.370;10.132;2023-03-14T03:02:27;10.70;;;1.65;;
13252;SDS011;6693;54.370;10.132;2023-03-14T03:03:30;10.38;;;1.42;;
13252;SDS011;6693;54.370;10.132;2023-03-14T03:04:31;15.30;;;2.00;;
13252;SDS011;6693;54.370;10.132;2023-03-14T03:05:34;12.82;;;1.85;;
13252;SDS011;6693;54.370;10.132;2023-03-14T03:06:35;11.85;;;2.10;;
13252;SDS011;6693;54.370;10.132;2023-03-14T03:07:38;14.50;;;2.30;;
13252;SDS011;6693;54.370;10.132;2023-03-14T03:08:39;10.32;;;1.35;;
13252;SDS011;6693;54.370;10.132;2023-03-14T03:09:42;12.27;;;1.90;;
13252;SDS011;6693;54.370;10.132;2023-03-14T03:10:43;11.73;;;1.75;;
13252;SDS011;6693;54.370;10.132;2023-03-14T03:11:47;10.68;;;2.00;;
13252;SDS011;6693;54.370;10.132;2023-03-14T03:12:50;12.77;;;1.77;;
13252;SDS011;6693;54.370;10.132;2023-03-14T03:13:51;11.13;;;1.85;;
13252;SDS011;6693;54.370;10.132;2023-03-14T03:14:57;16.98;;;2.00;;
13252;SDS011;6693;54.370;10.132;2023-03-14T03:15:58;12.50;;;1.67;;
13252;SDS011;6693;54.370;10.132;2023-03-14T03:17:01;10.30;;;1.75;;
13252;SDS011;6693;54.370;10.132;2023-03-14T03:18:02;12.88;;;2.03;;
13252;SDS011;6693;54.370;10.132;2023-03-14T03:19:05;10.82;;;1.77;;
13252;SDS011;6693;54.370;10.132;2023-03-14T03:20:07;9.60;;;1.92;;
13252;SDS011;6693;54.370;10.132;2023-03-14T03:21:12;13.35;;;2.03;;
13252;SDS011;6693;54.370;10.132;2023-03-14T03:22:13;12.25;;;1.77;;
13252;SDS011;6693;54.370;10.132;2023-03-14T03:23:16;9.82;;;1.55;;
13252;SDS011;6693;54.370;10.132;2023-03-14T03:24:17;11.30;;;1.50;;
13252;SDS011;6693;54.370;10.132;2023-03-14T03:25:20;12.20;;;2.38;;
13252;SDS011;6693;54.370;10.132;2023-03-14T03:26:21;13.98;;;1.85;;
13252;SDS011;6693;54.370;10.132;2023-03-14T03:27:24;10.02;;;1.77;;
13252;SDS011;6693;54.370;10.132;2023-03-14T03:28:25;11.75;;;2.30;;
13252;SDS011;6693;54.370;10.132;2023-03-14T03:29:29;12.95;;;2.13;;
13252;SDS011;6693;54.370;10.132;2023-03-14T03:30:32;13.23;;;1.95;;
13252;SDS011;6693;54.370;10.132;2023-03-14T03:31:36;13.68;;;1.85;;
13252;SDS011;6693;54.370;10.132;2023-03-14T03:32:37;13.00;;;1.83;;
13252;SDS011;6693;54.370;10.132;2023-03-14T03:33:41;14.35;;;1.80;;
13252;SDS011;6693;54.370;10.132;2023-03-14T03:34:41;12.68;;;2.05;;
13252;SDS011;6693;54.370;10.132;2023-03-14T03:35:45;13.93;;;2.63;;
13252;SDS011;6693;54.370;10.132;2023-03-14T03:36:47;14.75;;;2.10;;
13252;SDS011;6693;54.370;10.132;2023-03-14T03:37:50;9.73;;;1.67;;
13252;SDS011;6693;54.370;10.132;2023-03-14T03:38:51;10.10;;;1.65;;
13252;SDS011;6693;54.370;10.132;2023-03-14T03:39:54;15.82;;;1.95;;
13252;SDS011;6693;54.370;10.132;2023-03-14T03:40:55;12.65;;;1.83;;
13252;SDS011;6693;54.370;10.132;2023-03-14T03:41:58;14.50;;;2.28;;
13252;SDS011;6693;54.370;10.132;2023-03-14T03:42:59;12.88;;;2.00;;
13252;SDS011;6693;54.370;10.132;2023-03-14T03:44:04;11.50;;;1.48;;
13252;SDS011;6693;54.370;10.132;2023-03-14T03:45:06;9.32;;;1.67;;
13252;SDS011;6693;54.370;10.132;2023-03-14T03:46:13;11.07;;;1.98;;
13252;SDS011;6693;54.370;10.132;2023-03-14T03:47:14;12.15;;;1.65;;
13252;SDS011;6693;54.370;10.132;2023-03-14T03:48:17;10.60;;;2.33;;
13252;SDS011;6693;54.370;10.132;2023-03-14T03:49:18;12.02;;;1.90;;
13252;SDS011;6693;54.370;10.132;2023-03-14T03:50:21;11.93;;;2.08;;
13252;SDS011;6693;54.370;10.132;2023-03-14T03:51:22;9.45;;;1.40;;
13252;SDS011;6693;54.370;10.132;2023-03-14T03:52:26;8.25;;;1.50;;
13252;SDS011;6693;54.370;10.132;2023-03-14T03:53:27;9.60;;;1.85;;
13252;SDS011;6693;54.370;10.132;2023-03-14T03:54:30;9.45;;;1.80;;
13252;SDS011;6693;54.370;10.132;2023-03-14T03:55:31;10.35;;;1.52;;
13252;SDS011;6693;54.370;10.132;2023-03-14T03:56:34;12.45;;;1.98;;
13252;SDS011;6693;54.370;10.132;2023-03-14T03:57:35;10.77;;;1.88;;
13252;SDS011;6693;54.370;10.132;2023-03-14T03:58:38;12.57;;;2.15;;
13252;SDS011;6693;54.370;10.132;2023-03-14T03:59:38;11.98;;;2.22;;
13252;SDS011;6693;54.370;10.132;2023-03-14T04:00:42;10.20;;;2.60;;
13252;SDS011;6693;54.370;10.132;2023-03-14T04:01:45;13.68;;;2.25;;
13252;SDS011;6693;54.370;10.132;2023-03-14T04:02:48;9.40;;;2.10;;
13252;SDS011;6693;54.370;10.132;2023-03-14T04:03:49;11.20;;;1.95;;
13252;SDS011;6693;54.370;10.132;2023-03-14T04:04:52;9.98;;;1.40;;
13252;SDS011;6693;54.370;10.132;2023-03-14T04:05:59;13.43;;;1.88;;
13252;SDS011;6693;54.370;10.132;2023-03-14T04:07:03;10.82;;;2.13;;
13252;SDS011;6693;54.370;10.132;2023-03-14T04:08:04;13.90;;;2.10;;
13252;SDS011;6693;54.370;10.132;2023-03-14T04:09:07;10.85;;;2.38;;
13252;SDS011;6693;54.370;10.132;2023-03-14T04:10:09;13.82;;;2.45;;
13252;SDS011;6693;54.370;10.132;2023-03-14T04:11:12;8.93;;;2.33;;
13252;SDS011;6693;54.370;10.132;2023-03-14T04:12:13;9.95;;;2.55;;
13252;SDS011;6693;54.370;10.132;2023-03-14T04:13:16;11.40;;;2.33;;
13252;SDS011;6693;54.370;10.132;2023-03-14T04:14:17;7.47;;;2.63;;
13252;SDS011;6693;54.370;10.132;2023-03-14T04:15:20;11.52;;;3.05;;
13252;SDS011;6693;54.370;10.132;2023-03-14T04:16:21;10.15;;;2.55;;
13252;SDS011;6693;54.370;10.132;2023-03-14T04:17:28;15.05;;;3.00;;
13252;SDS011;6693;54.370;10.132;2023-03-14T04:18:29;9.20;;;2.33;;
13252;SDS011;6693;54.370;10.132;2023-03-14T04:19:32;12.70;;;2.58;;
13252;SDS011;6693;54.370;10.132;2023-03-14T04:20:34;8.57;;;2.30;;
13252;SDS011;6693;54.370;10.132;2023-03-14T04:21:37;9.02;;;3.05;;
13252;SDS011;6693;54.370;10.132;2023-03-14T04:22:40;10.05;;;3.10;;
13252;SDS011;6693;54.370;10.132;2023-03-14T04:23:43;9.60;;;2.53;;
13252;SDS011;6693;54.370;10.132;2023-03-14T04:24:44;9.88;;;2.42;;
13252;SDS011;6693;54.370;10.132;2023-03-14T04:25:47;9.90;;;2.85;;
13252;SDS011;6693;54.370;10.132;2023-03-14T04:26:48;10.00;;;2.20;;
13252;SDS011;6693;54.370;10.132;2023-03-14T04:27:51;8.15;;;2.63;;
13252;SDS011;6693;54.370;10.132;2023-03-14T04:28:52;9.73;;;2.30;;
13252;SDS011;6693;54.370;10.132;2023-03-14T04:29:55;8.02;;;2.55;;
13252;SDS011;6693;54.370;10.132;2023-03-14T04:30:56;10.20;;;3.05;;
13252;SDS011;6693;54.370;10.132;2023-03-14T04:31:59;12.82;;;2.88;;
13252;SDS011;6693;54.370;10.132;2023-03-14T04:33:02;9.15;;;2.70;;
13252;SDS011;6693;54.370;10.132;2023-03-14T04:34:05;9.63;;;2.88;;
13252;SDS011;6693;54.370;10.132;2023-03-14T04:35:06;11.32;;;3.15;;
13252;SDS011;6693;54.370;10.132;2023-03-14T04:36:10;10.98;;;3.22;;
13252;SDS011;6693;54.370;10.132;2023-03-14T04:37:11;10.02;;;2.63;;
13252;SDS011;6693;54.370;10.132;2023-03-14T04:38:14;6.90;;;2.10;;
13252;SDS011;6693;54.370;10.132;2023-03-14T04:39:15;8.50;;;2.35;;
13252;SDS011;6693;54.370;10.132;2023-03-14T04:40:18;7.82;;;2.30;;
13252;SDS011;6693;54.370;10.132;2023-03-14T04:41:19;8.68;;;2.65;;
13252;SDS011;6693;54.370;10.132;2023-03-14T04:42:22;6.13;;;1.83;;
13252;SDS011;6693;54.370;10.132;2023-03-14T04:43:23;11.45;;;2.03;;
13252;SDS011;6693;54.370;10.132;2023-03-14T04:44:26;8.55;;;2.42;;
13252;SDS011;6693;54.370;10.132;2023-03-14T04:45:27;6.30;;;1.70;;
13252;SDS011;6693;54.370;10.132;2023-03-14T04:46:30;7.55;;;2.40;;
13252;SDS011;6693;54.370;10.132;2023-03-14T04:47:31;6.07;;;1.95;;
13252;SDS011;6693;54.370;10.132;2023-03-14T04:48:37;6.47;;;1.83;;
13252;SDS011;6693;54.370;10.132;2023-03-14T04:49:38;8.05;;;2.10;;
13252;SDS011;6693;54.370;10.132;2023-03-14T04:50:41;8.82;;;1.90;;
13252;SDS011;6693;54.370;10.132;2023-03-14T04:51:42;6.95;;;2.03;;
13252;SDS011;6693;54.370;10.132;2023-03-14T04:52:45;7.22;;;2.03;;
13252;SDS011;6693;54.370;10.132;2023-03-14T04:53:46;8.73;;;2.85;;
13252;SDS011;6693;54.370;10.132;2023-03-14T04:54:49;7.22;;;2.20;;
13252;SDS011;6693;54.370;10.132;2023-03-14T04:55:50;8.57;;;1.85;;
13252;SDS011;6693;54.370;10.132;2023-03-14T04:56:53;8.25;;;2.10;;
13252;SDS011;6693;54.370;10.132;2023-03-14T04:57:54;8.32;;;2.25;;
13252;SDS011;6693;54.370;10.132;2023-03-14T04:58:57;7.65;;;2.00;;
13252;SDS011;6693;54.370;10.132;2023-03-14T04:59:57;7.25;;;1.50;;
13252;SDS011;6693;54.370;10.132;2023-03-14T05:01:01;7.65;;;1.83;;
13252;SDS011;6693;54.370;10.132;2023-03-14T05:02:03;7.65;;;2.30;;
13252;SDS011;6693;54.370;10.132;2023-03-14T05:03:06;10.02;;;2.22;;
13252;SDS011;6693;54.370;10.132;2023-03-14T05:04:09;8.77;;;2.17;;
13252;SDS011;6693;54.370;10.132;2023-03-14T05:05:12;7.53;;;2.10;;
13252;SDS011;6693;54.370;10.132;2023-03-14T05:06:13;8.18;;;2.13;;
13252;SDS011;6693;54.370;10.132;2023-03-14T05:07:16;8.43;;;1.75;;
13252;SDS011;6693;54.370;10.132;2023-03-14T05:08:17;9.05;;;2.30;;
13252;SDS011;6693;54.370;10.132;2023-03-14T05:09:20;9.00;;;2.33;;
13252;SDS011;6693;54.370;10.132;2023-03-14T05:10:21;7.60;;;2.10;;
13252;SDS011;6693;54.370;10.132;2023-03-14T05:11:24;6.95;;;1.65;;
13252;SDS011;6693;54.370;10.132;2023-03-14T05:12:24;8.77;;;1.83;;
13252;SDS011;6693;54.370;10.132;2023-03-14T05:13:28;7.20;;;1.60;;
13252;SDS011;6693;54.370;10.132;2023-03-14T05:14:28;7.07;;;1.50;;
13252;SDS011;6693;54.370;10.132;2023-03-14T05:15:31;6.97;;;1.55;;
13252;SDS011;6693;54.370;10.132;2023-03-14T05:16:32;5.80;;;1.83;;
13252;SDS011;6693;54.370;10.132;2023-03-14T05:17:35;7.25;;;1.80;;
13252;SDS011;6693;54.370;10.132;2023-03-14T05:18:36;7.68;;;2.17;;
13252;SDS011;6693;54.370;10.132;2023-03-14T05:19:42;7.40;;;1.48;;
13252;SDS011;6693;54.370;10.132;2023-03-14T05:20:43;6.05;;;1.30;;
13252;SDS011;6693;54.370;10.132;2023-03-14T05:21:46;7.35;;;1.60;;
13252;SDS011;6693;54.370;10.132;2023-03-14T05:22:46;7.45;;;1.73;;
13252;SDS011;6693;54.370;10.132;2023-03-14T05:23:50;6.25;;;1.48;;
13252;SDS011;6693;54.370;10.132;2023-03-14T05:24:51;8.60;;;1.92;;
13252;SDS011;6693;54.370;10.132;2023-03-14T05:25:56;7.60;;;1.60;;
13252;SDS011;6693;54.370;10.132;2023-03-14T05:26:57;7.20;;;2.17;;
13252;SDS011;6693;54.370;10.132;2023-03-14T05:28:00;6.85;;;2.03;;
13252;SDS011;6693;54.370;10.132;2023-03-14T05:29:01;7.07;;;2.35;;
13252;SDS011;6693;54.370;10.132;2023-03-14T05:30:05;7.57;;;2.65;;
13252;SDS011;6693;54.370;10.132;2023-03-14T05:31:07;6.57;;;2.25;;
13252;SDS011;6693;54.370;10.132;2023-03-14T05:32:10;6.97;;;2.60;;
13252;SDS011;6693;54.370;10.132;2023-03-14T05:33:11;8.52;;;2.92;;
13252;SDS011;6693;54.370;10.132;2023-03-14T05:34:14;7.13;;;2.60;;
13252;SDS011;6693;54.370;10.132;2023-03-14T05:35:17;7.13;;;2.30;;
13252;SDS011;6693;54.370;10.132;2023-03-14T05:36:20;8.65;;;1.92;;
13252;SDS011;6693;54.370;10.132;2023-03-14T05:37:21;7.55;;;2.83;;
13252;SDS011;6693;54.370;10.132;2023-03-14T05:38:24;6.50;;;2.33;;
13252;SDS011;6693;54.370;10.132;2023-03-14T05:39:25;5.47;;;1.67;;
13252;SDS011;6693;54.370;10.132;2023-03-14T05:40:28;7.28;;;2.35;;
13252;SDS011;6693;54.370;10.132;2023-03-14T05:41:29;5.40;;;1.45;;
13252;SDS011;6693;54.370;10.132;2023-03-14T05:42:32;5.72;;;1.50;;
13252;SDS011;6693;54.370;10.132;2023-03-14T05:43:33;5.18;;;1.85;;
13252;SDS011;6693;54.370;10.132;2023-03-14T05:44:36;8.52;;;3.13;;
13252;SDS011;6693;54.370;10.132;2023-03-14T05:45:37;6.15;;;2.20;;
13252;SDS011;6693;54.370;10.132;2023-03-14T05:46:40;8.20;;;3.13;;
13252;SDS011;6693;54.370;10.132;2023-03-14T05:47:40;7.68;;;2.70;;
13252;SDS011;6693;54.370;10.132;2023-03-14T05:48:44;6.10;;;2.72;;
13252;SDS011;6693;54.370;10.132;2023-03-14T05:49:44;5.72;;;1.80;;
13252;SDS011;6693;54.370;10.132;2023-03-14T05:50:53;6.00;;;1.30;;
13252;SDS011;6693;54.370;10.132;2023-03-14T05:51:55;6.72;;;2.10;;
13252;SDS011;6693;54.370;10.132;2023-03-14T05:52:58;6.30;;;1.98;;
13252;SDS011;6693;54.370;10.132;2023-03-14T05:53:58;6.38;;;1.73;;
13252;SDS011;6693;54.370;10.132;2023-03-14T05:55:02;6.95;;;1.45;;
13252;SDS011;6693;54.370;10.132;2023-03-14T05:56:02;6.00;;;2.00;;
13252;SDS011;6693;54.370;10.132;2023-03-14T05:57:06;10.38;;;2.45;;
13252;SDS011;6693;54.370;10.132;2023-03-14T05:58:06;7.20;;;1.80;;
13252;SDS011;6693;54.370;10.132;2023-03-14T05:59:10;6.60;;;2.03;;
13252;SDS011;6693;54.370;10.132;2023-03-14T06:00:11;10.45;;;3.05;;
13252;SDS011;6693;54.370;10.132;2023-03-14T06:01:15;8.93;;;2.10;;
13252;SDS011;6693;54.370;10.132;2023-03-14T06:02:15;7.30;;;2.72;;
13252;SDS011;6693;54.370;10.132;2023-03-14T06:03:18;5.43;;;1.38;;
13252;SDS011;6693;54.370;10.132;2023-03-14T06:04:19;9.63;;;3.88;;
13252;SDS011;6693;54.370;10.132;2023-03-14T06:05:22;7.28;;;1.52;;
13252;SDS011;6693;54.370;10.132;2023-03-14T06:06:25;8.80;;;3.70;;
13252;SDS011;6693;54.370;10.132;2023-03-14T06:07:29;13.88;;;5.20;;
13252;SDS011;6693;54.370;10.132;2023-03-14T06:08:29;9.52;;;3.50;;
13252;SDS011;6693;54.370;10.132;2023-03-14T06:09:34;10.45;;;2.60;;
13252;SDS011;6693;54.370;10.132;2023-03-14T06:10:35;8.23;;;1.65;;
13252;SDS011;6693;54.370;10.132;2023-03-14T06:11:38;6.93;;;2.20;;
13252;SDS011;6693;54.370;10.132;2023-03-14T06:12:38;6.93;;;2.00;;
13252;SDS011;6693;54.370;10.132;2023-03-14T06:13:42;11.20;;;4.65;;
13252;SDS011;6693;54.370;10.132;2023-03-14T06:14:42;9.23;;;2.80;;